createdAt,value
2023-01-17T00:01:19.310Z,95611.49
2023-01-17T00:04:08.481Z,95618.41
2023-01-17T00:07:06.730Z,95615.98
2023-01-17T00:09:54.497Z,95611.67
2023-01-17T00:12:29.900Z,95603.39
2023-01-17T00:15:03.332Z,95602.98
2023-01-17T00:17:36.012Z,95602.94
2023-01-17T00:20:28.994Z,95601.38
2023-01-17T00:23:18.970Z,95597.56
2023-01-17T00:26:06.805Z,95587.29
2023-01-17T00:28:40.484Z,95595.00
2023-01-17T00:31:14.176Z,95599.25
2023-01-17T00:33:47.957Z,95600.17
2023-01-17T00:36:19.197Z,95598.48
2023-01-17T00:38:50.400Z,95598.88
2023-01-17T00:41:21.827Z,95602.11
2023-01-17T00:44:11.908Z,95603.41
2023-01-17T00:47:04.351Z,95608.30
2023-01-17T00:49:54.708Z,95603.58
2023-01-17T00:52:45.016Z,95603.77
2023-01-17T00:55:35.549Z,95607.30
2023-01-17T00:58:28.663Z,95607.37
2023-01-17T01:01:19.078Z,95604.67
2023-01-17T01:04:12.130Z,95604.80
2023-01-17T01:07:02.496Z,95604.61
2023-01-17T01:09:53.134Z,95606.96
2023-01-17T01:12:41.511Z,95605.59
2023-01-17T01:15:32.550Z,95601.66
2023-01-17T01:21:36.673Z,95611.92
2023-01-17T01:24:28.384Z,95604.94
2023-01-17T01:27:18.707Z,95600.94
2023-01-17T01:30:08.791Z,95597.35
2023-01-17T01:32:59.384Z,95592.91
2023-01-17T01:35:30.640Z,95587.98
2023-01-17T01:38:09.727Z,95591.89
2023-01-17T01:40:49.932Z,95593.39
2023-01-17T01:43:37.274Z,95600.92
2023-01-17T01:46:14.451Z,95606.25
2023-01-17T01:48:56.217Z,95607.52
2023-01-17T01:51:35.620Z,95607.80
2023-01-17T01:54:17.633Z,95606.94
2023-01-17T01:56:56.938Z,95610.17
2023-01-17T01:59:35.530Z,95611.23
2023-01-17T02:02:10.574Z,95616.45
2023-01-17T02:04:45.533Z,95609.66
2023-01-17T02:07:23.317Z,95615.33
2023-01-17T02:09:56.102Z,95616.10
2023-01-17T02:12:29.042Z,95611.40
2023-01-17T02:15:01.938Z,95611.23
2023-01-17T02:17:45.074Z,95608.42
2023-01-17T02:20:42.822Z,95608.72
2023-01-17T02:23:49.683Z,95610.31
2023-01-17T02:26:49.670Z,95613.02
2023-01-17T02:30:04.154Z,95615.38
2023-01-17T02:32:48.755Z,95616.57
2023-01-17T02:35:30.823Z,95616.26
2023-01-17T02:38:09.910Z,95610.98
2023-01-17T02:40:47.821Z,95609.56
2023-01-17T02:43:25.264Z,95605.27
2023-01-17T02:46:04.777Z,95603.44
2023-01-17T02:48:40.196Z,95599.35
2023-01-17T02:51:57.713Z,95594.67
2023-01-17T02:55:02.360Z,95590.48
2023-01-17T02:57:59.343Z,95584.61
2023-01-17T03:00:43.697Z,95582.94
2023-01-17T03:03:28.516Z,95584.65
2023-01-17T03:06:11.811Z,95587.23
2023-01-17T03:08:50.876Z,95589.07
2023-01-17T03:11:23.767Z,95587.14
2023-01-17T03:13:59.409Z,95589.98
2023-01-17T03:16:37.522Z,95588.56
2023-01-17T03:19:15.294Z,95593.31
2023-01-17T03:21:54.137Z,95593.28
2023-01-17T03:24:26.845Z,95595.61
2023-01-17T03:26:59.374Z,95592.72
2023-01-17T03:29:32.096Z,95594.41
2023-01-17T03:32:04.845Z,95589.92
2023-01-17T03:34:38.146Z,95590.92
2023-01-17T03:37:13.668Z,95593.20
2023-01-17T03:39:48.365Z,95594.67
2023-01-17T03:42:23.124Z,95601.33
2023-01-17T03:44:55.578Z,95605.38
2023-01-17T03:47:31.556Z,95610.91
2023-01-17T03:50:04.335Z,95611.06
2023-01-17T03:52:36.852Z,95613.42
2023-01-17T03:55:11.763Z,95614.66
2023-01-17T03:57:44.427Z,95608.93
2023-01-17T04:00:18.631Z,95606.67
2023-01-17T04:02:51.354Z,95616.60
2023-01-17T04:05:24.746Z,95631.36
2023-01-17T04:07:57.464Z,95630.38
2023-01-17T04:10:30.379Z,95624.05
2023-01-17T04:13:03.050Z,95628.33
2023-01-17T04:15:36.020Z,95632.27
2023-01-17T04:18:12.347Z,95627.63
2023-01-17T04:20:45.318Z,95633.73
2023-01-17T04:23:18.005Z,95637.09
2023-01-17T04:25:50.667Z,95643.42
2023-01-17T04:28:23.290Z,95643.15
2023-01-17T04:30:58.860Z,95645.54
2023-01-17T04:33:34.962Z,95640.59
2023-01-17T04:36:09.726Z,95639.59
2023-01-17T04:38:45.565Z,95639.05
2023-01-17T04:41:18.009Z,95649.73
2023-01-17T04:43:53.319Z,95647.92
2023-01-17T04:46:26.734Z,95641.01
2023-01-17T04:48:59.161Z,95641.42
2023-01-17T04:51:33.029Z,95648.85
2023-01-17T04:54:08.203Z,95654.92
2023-01-17T04:56:47.816Z,95652.52
2023-01-17T04:59:20.873Z,95655.10
2023-01-17T05:01:56.430Z,95656.98
2023-01-17T05:04:28.895Z,95655.48
2023-01-17T05:07:01.766Z,95664.50
2023-01-17T05:09:34.783Z,95667.58
2023-01-17T05:12:07.944Z,95665.88
2023-01-17T05:14:45.847Z,95666.82
2023-01-17T05:17:21.281Z,95671.45
2023-01-17T05:19:54.086Z,95670.45
2023-01-17T05:22:27.777Z,95670.27
2023-01-17T05:25:03.367Z,95676.66
2023-01-17T05:27:37.019Z,95684.42
2023-01-17T05:30:11.545Z,95683.80
2023-01-17T05:32:46.061Z,95683.67
2023-01-17T05:35:19.748Z,95678.81
2023-01-17T05:37:53.768Z,95673.46
2023-01-17T05:40:28.895Z,95678.51
2023-01-17T05:43:05.491Z,95683.21
2023-01-17T05:45:38.804Z,95683.14
2023-01-17T05:48:14.873Z,95681.87
2023-01-17T05:50:47.644Z,95682.64
2023-01-17T05:53:23.030Z,95687.92
2023-01-17T05:55:55.958Z,95685.55
2023-01-17T05:58:28.908Z,95689.38
2023-01-17T06:01:04.089Z,95695.89
2023-01-17T06:03:39.648Z,95703.00
2023-01-17T06:06:14.982Z,95694.36
2023-01-17T06:08:47.886Z,95695.08
2023-01-17T06:11:23.503Z,95695.00
2023-01-17T06:13:56.045Z,95691.00
2023-01-17T06:16:28.603Z,95688.73
2023-01-17T06:19:01.147Z,95685.98
2023-01-17T06:21:36.962Z,95694.89
2023-01-17T06:24:14.619Z,95702.75
2023-01-17T06:26:52.925Z,95707.10
2023-01-17T06:29:25.886Z,95705.79
2023-01-17T06:32:01.935Z,95706.20
2023-01-17T06:34:38.648Z,95708.14
2023-01-17T06:37:11.599Z,95700.73
2023-01-17T06:39:50.881Z,95701.06
2023-01-17T06:42:24.257Z,95704.19
2023-01-17T06:45:01.821Z,95707.62
2023-01-17T06:47:43.062Z,95714.42
2023-01-17T06:50:21.249Z,95715.36
2023-01-17T06:53:00.074Z,95721.39
2023-01-17T06:55:34.754Z,95722.52
2023-01-17T06:58:10.041Z,95722.92
2023-01-17T07:00:42.466Z,95717.25
2023-01-17T07:03:21.481Z,95707.68
2023-01-17T07:05:57.672Z,95703.74
2023-01-17T07:08:30.403Z,95706.38
2023-01-17T07:11:05.994Z,95708.14
2023-01-17T07:13:39.362Z,95712.33
2023-01-17T07:16:12.089Z,95716.20
2023-01-17T07:18:44.472Z,95717.41
2023-01-17T07:21:17.483Z,95719.99
2023-01-17T07:23:50.305Z,95724.59
2023-01-17T07:26:23.604Z,95724.86
2023-01-17T07:28:56.261Z,95724.41
2023-01-17T07:31:29.096Z,95726.88
2023-01-17T07:34:04.359Z,95729.00
2023-01-17T07:36:36.768Z,95729.95
2023-01-17T07:39:12.410Z,95726.52
2023-01-17T07:41:47.308Z,95722.05
2023-01-17T07:44:19.958Z,95722.56
2023-01-17T07:46:52.605Z,95722.63
2023-01-17T07:49:25.105Z,95722.67
2023-01-17T07:51:57.417Z,95722.02
2023-01-17T07:54:29.845Z,95720.58
2023-01-17T07:57:02.275Z,95722.67
2023-01-17T07:59:34.945Z,95725.48
2023-01-17T08:02:07.632Z,95726.48
2023-01-17T08:04:40.098Z,95719.13
2023-01-17T08:07:14.022Z,95723.32
2023-01-17T08:09:50.284Z,95731.52
2023-01-17T08:12:26.876Z,95737.05
2023-01-17T08:14:59.292Z,95739.64
2023-01-17T08:17:34.787Z,95738.14
2023-01-17T08:20:11.983Z,95743.54
2023-01-17T08:22:47.211Z,95746.18
2023-01-17T08:25:19.866Z,95747.60
2023-01-17T08:27:52.480Z,95750.01
2023-01-17T08:30:25.190Z,95755.13
2023-01-17T08:33:01.664Z,95747.93
2023-01-17T08:35:36.925Z,95741.57
2023-01-17T08:38:10.091Z,95746.27
2023-01-17T08:40:43.195Z,95746.09
2023-01-17T08:43:15.642Z,95746.67
2023-01-17T08:45:51.560Z,95740.20
2023-01-17T08:48:24.117Z,95739.36
2023-01-17T08:50:56.489Z,95743.60
2023-01-17T08:53:28.994Z,95751.47
2023-01-17T08:56:02.747Z,95753.47
2023-01-17T08:58:35.942Z,95752.90
2023-01-17T09:01:08.906Z,95757.82
2023-01-17T09:03:41.418Z,95759.02
2023-01-17T09:06:16.712Z,95756.53
2023-01-17T09:08:49.786Z,95759.95
2023-01-17T09:11:22.219Z,95756.98
2023-01-17T09:13:57.122Z,95763.39
2023-01-17T09:16:30.103Z,95766.39
2023-01-17T09:19:03.042Z,95767.25
2023-01-17T09:21:36.085Z,95772.46
2023-01-17T09:24:09.080Z,95767.29
2023-01-17T09:26:41.609Z,95764.17
2023-01-17T09:29:18.828Z,95774.48
2023-01-17T09:31:56.791Z,95774.92
2023-01-17T09:34:30.664Z,95771.92
2023-01-17T09:37:03.197Z,95769.09
2023-01-17T09:39:37.876Z,95772.06
2023-01-17T09:42:22.976Z,95772.13
2023-01-17T09:44:59.491Z,95772.23
2023-01-17T09:47:39.350Z,95771.75
2023-01-17T09:50:27.083Z,95768.71
2023-01-17T09:53:06.281Z,95767.96
2023-01-17T09:55:51.378Z,95771.58
2023-01-17T09:58:33.466Z,95770.95
2023-01-17T10:01:20.088Z,95767.96
2023-01-17T10:04:09.985Z,95765.17
2023-01-17T10:07:04.079Z,95769.34
2023-01-17T10:09:56.621Z,95770.33
2023-01-17T10:12:34.477Z,95771.66
2023-01-17T10:15:33.753Z,95778.99
2023-01-17T10:18:29.979Z,95778.48
2023-01-17T10:21:15.217Z,95771.58
2023-01-17T10:24:16.405Z,95755.19
2023-01-17T10:26:54.550Z,95736.67
2023-01-17T10:29:32.767Z,95740.81
2023-01-17T10:32:06.094Z,95730.16
2023-01-17T10:34:46.088Z,95726.89
2023-01-17T10:37:23.078Z,95725.83
2023-01-17T10:39:59.299Z,95725.68
2023-01-17T10:42:38.690Z,95724.50
2023-01-17T10:45:21.600Z,95666.92
2023-01-17T10:48:01.712Z,95679.32
2023-01-17T10:50:48.160Z,95689.81
2023-01-17T10:53:44.836Z,95704.78
2023-01-17T10:56:19.596Z,95694.19
2023-01-17T10:58:59.118Z,95708.39
2023-01-17T11:01:32.005Z,95710.61
2023-01-17T11:04:05.263Z,95707.29
2023-01-17T11:06:57.285Z,95678.37
2023-01-17T11:09:40.797Z,95670.23
2023-01-17T11:12:28.277Z,95657.30
2023-01-17T11:15:05.870Z,95641.27
2023-01-17T11:17:42.915Z,95642.75
2023-01-17T11:20:26.839Z,95650.35
2023-01-17T11:23:13.905Z,95646.61
2023-01-17T11:25:53.657Z,95652.67
2023-01-17T11:28:30.575Z,95628.05
2023-01-17T11:31:07.739Z,95590.71
2023-01-17T11:33:53.911Z,95608.46
2023-01-17T11:36:31.535Z,95605.52
2023-01-17T11:39:23.651Z,95615.84
2023-01-17T11:41:56.691Z,95588.27
2023-01-17T11:44:31.756Z,95618.98
2023-01-17T11:47:19.464Z,95610.95
2023-01-17T11:49:52.181Z,95594.61
2023-01-17T11:52:32.871Z,95556.09
2023-01-17T11:55:07.245Z,95563.20
2023-01-17T11:57:39.941Z,95581.73
2023-01-17T12:00:25.808Z,95583.94
2023-01-17T12:03:31.251Z,95578.33
2023-01-17T12:06:09.741Z,95577.52
2023-01-17T12:08:56.947Z,95580.92
2023-01-17T12:12:00.163Z,95574.83
2023-01-17T12:14:43.049Z,95589.20
2023-01-17T12:17:30.313Z,95593.54
2023-01-17T12:20:06.265Z,95582.10
2023-01-17T12:23:08.371Z,95574.42
2023-01-17T12:25:57.736Z,95566.40
2023-01-17T12:29:08.723Z,95570.56
2023-01-17T12:31:46.859Z,95551.33
2023-01-17T12:34:27.476Z,95559.20
2023-01-17T12:37:04.161Z,95553.55
2023-01-17T12:39:42.386Z,95532.11
2023-01-17T12:42:19.737Z,95541.92
2023-01-17T12:44:57.916Z,95539.72
2023-01-17T12:47:31.335Z,95535.42
2023-01-17T12:50:16.705Z,95517.50
2023-01-17T12:52:55.982Z,95501.91
2023-01-17T12:55:39.180Z,95487.17
2023-01-17T12:58:17.540Z,95513.71
2023-01-17T13:00:57.858Z,95526.27
2023-01-17T13:03:43.178Z,95523.45
2023-01-17T13:06:23.397Z,95511.59
2023-01-17T13:09:00.359Z,95523.69
2023-01-17T13:11:41.206Z,95528.41
2023-01-17T13:14:13.715Z,95518.77
2023-01-17T13:16:51.283Z,95498.40
2023-01-17T13:19:35.743Z,95485.64
2023-01-17T13:22:17.401Z,95486.88
2023-01-17T13:24:56.593Z,95467.53
2023-01-17T13:27:38.794Z,95482.81
2023-01-17T13:30:32.518Z,95489.52
2023-01-17T13:33:29.544Z,95484.20
2023-01-17T13:36:19.746Z,95488.92
2023-01-17T13:39:09.284Z,95485.33
2023-01-17T13:41:51.506Z,95492.83
2023-01-17T13:44:31.957Z,95504.67
2023-01-17T13:47:07.478Z,95520.20
2023-01-17T13:49:51.611Z,95522.05
2023-01-17T13:52:34.125Z,95518.90
2023-01-17T13:55:08.259Z,95524.86
2023-01-17T13:57:43.805Z,95533.48
2023-01-17T14:00:55.028Z,95542.33
2023-01-17T14:04:01.808Z,95559.77
2023-01-17T14:06:41.827Z,95572.05
2023-01-17T14:09:24.866Z,95581.73
2023-01-17T14:12:04.554Z,95591.01
2023-01-17T14:14:57.043Z,95602.90
2023-01-17T14:17:51.918Z,95613.08
2023-01-17T14:21:05.421Z,95610.83
2023-01-17T14:24:07.224Z,95622.00
2023-01-17T14:26:51.655Z,95642.34
2023-01-17T14:30:00.744Z,95658.23
2023-01-17T14:32:37.562Z,95666.21
2023-01-17T14:35:24.068Z,95671.04
2023-01-17T14:37:58.167Z,95679.89
2023-01-17T14:40:33.170Z,95690.73
2023-01-17T14:43:10.715Z,95696.77
2023-01-17T14:45:44.559Z,95705.30
2023-01-17T14:48:20.051Z,95722.52
2023-01-17T14:50:54.168Z,95734.39
2023-01-17T14:53:28.155Z,95740.09
2023-01-17T14:56:02.746Z,95746.10
2023-01-17T14:58:36.476Z,95750.18
2023-01-17T15:01:14.445Z,95748.95
2023-01-17T15:03:50.943Z,95751.64
2023-01-17T15:06:25.960Z,95752.52
2023-01-17T15:09:01.012Z,95751.95
2023-01-17T15:11:37.085Z,95756.88
2023-01-17T15:14:13.722Z,95765.50
2023-01-17T15:16:45.985Z,95773.99
2023-01-17T15:19:18.285Z,95780.62
2023-01-17T15:21:53.484Z,95787.77
2023-01-17T15:24:28.876Z,95800.16
2023-01-17T15:27:01.780Z,95810.04
2023-01-17T15:29:36.381Z,95818.29
2023-01-17T15:32:16.981Z,95822.42
2023-01-17T15:34:48.513Z,95824.69
2023-01-17T15:37:32.606Z,95829.27
2023-01-17T15:40:17.157Z,95838.77
2023-01-17T15:42:52.103Z,95839.96
2023-01-17T15:45:28.455Z,95846.38
2023-01-17T15:48:21.126Z,95857.46
2023-01-17T15:51:00.420Z,95862.27
2023-01-17T15:53:34.311Z,95868.58
2023-01-17T15:56:22.258Z,95871.45
2023-01-17T15:58:54.602Z,95873.40
2023-01-17T16:01:28.891Z,95876.67
2023-01-17T16:04:01.114Z,95881.65
2023-01-17T16:06:45.620Z,95879.87
2023-01-17T16:09:25.402Z,95880.38
2023-01-17T16:11:57.658Z,95879.26
2023-01-17T16:14:44.795Z,95876.98
2023-01-17T16:17:22.410Z,95875.70
2023-01-17T16:19:54.945Z,95874.11
2023-01-17T16:22:27.806Z,95872.30
2023-01-17T16:25:00.927Z,95876.23
2023-01-17T16:27:33.269Z,95876.22
2023-01-17T16:30:06.893Z,95877.41
2023-01-17T16:32:39.262Z,95872.19
2023-01-17T16:35:19.236Z,95873.30
2023-01-17T16:37:54.494Z,95874.02
2023-01-17T16:40:29.223Z,95869.55
2023-01-17T16:43:02.360Z,95868.72
2023-01-17T16:45:42.400Z,95876.00
2023-01-17T16:48:14.825Z,95874.48
2023-01-17T16:50:50.692Z,95878.39
2023-01-17T16:53:25.412Z,95887.30
2023-01-17T16:56:00.232Z,95888.38
2023-01-17T16:58:33.234Z,95887.25
2023-01-17T17:01:09.266Z,95885.90
2023-01-17T17:03:41.705Z,95890.11
2023-01-17T17:06:15.118Z,95893.62
2023-01-17T17:08:47.673Z,95895.44
2023-01-17T17:11:21.879Z,95889.73
2023-01-17T17:13:54.684Z,95887.66
2023-01-17T17:16:31.134Z,95884.73
2023-01-17T17:19:05.468Z,95881.75
2023-01-17T17:21:38.721Z,95883.45
2023-01-17T17:24:15.296Z,95883.90
2023-01-17T17:26:47.697Z,95886.53
2023-01-17T17:29:20.035Z,95883.70
2023-01-17T17:31:52.327Z,95885.72
2023-01-17T17:34:27.683Z,95884.42
2023-01-17T17:37:00.231Z,95888.84
2023-01-17T17:39:33.739Z,95890.02
2023-01-17T17:42:08.340Z,95895.52
2023-01-17T17:44:40.755Z,95895.20
2023-01-17T17:47:13.828Z,95893.17
2023-01-17T17:49:48.993Z,95893.08
2023-01-17T17:52:21.282Z,95902.18
2023-01-17T17:54:53.783Z,95903.67
2023-01-17T17:57:26.063Z,95903.20
2023-01-17T17:59:59.856Z,95913.05
2023-01-17T18:02:32.163Z,95925.03
2023-01-17T18:05:04.745Z,95928.40
2023-01-17T18:07:37.009Z,95927.45
2023-01-17T18:10:11.343Z,95929.48
2023-01-17T18:12:46.578Z,95930.21
2023-01-17T18:15:21.237Z,95941.48
2023-01-17T18:17:55.658Z,95953.23
2023-01-17T18:20:27.950Z,95956.80
2023-01-17T18:23:00.345Z,95962.91
2023-01-17T18:25:36.545Z,95965.48
2023-01-17T18:28:08.918Z,95966.25
2023-01-17T18:30:42.997Z,95970.08
2023-01-17T18:33:15.279Z,95970.89
2023-01-17T18:35:55.963Z,95974.63
2023-01-17T18:38:38.016Z,95982.16
2023-01-17T18:41:12.484Z,95981.69
2023-01-17T18:43:44.887Z,95989.16
2023-01-17T18:46:17.995Z,95993.06
2023-01-17T18:48:50.238Z,95993.27
2023-01-17T18:51:22.663Z,95993.13
2023-01-17T18:53:54.911Z,96001.42
2023-01-17T18:56:29.668Z,96008.91
2023-01-17T18:59:02.455Z,96012.72
2023-01-17T19:01:37.230Z,96012.45
2023-01-17T19:04:09.568Z,96007.61
2023-01-17T19:06:43.651Z,96003.13
2023-01-17T19:09:17.287Z,96000.98
2023-01-17T19:11:50.139Z,96004.01
2023-01-17T19:14:22.737Z,96008.65
2023-01-17T19:16:56.216Z,96014.39
2023-01-17T19:19:28.391Z,96015.00
2023-01-17T19:22:00.863Z,96019.50
2023-01-17T19:24:35.916Z,96023.94
2023-01-17T19:27:08.703Z,96016.19
2023-01-17T19:29:43.861Z,96010.02
2023-01-17T19:32:16.399Z,96003.36
2023-01-17T19:34:49.037Z,96004.09
2023-01-17T19:37:21.687Z,95998.92
2023-01-17T19:39:53.991Z,95994.55
2023-01-17T19:42:26.462Z,95987.38
2023-01-17T19:44:58.716Z,95980.10
2023-01-17T19:47:30.918Z,95969.48
2023-01-17T19:50:03.541Z,95962.48
2023-01-17T19:52:36.064Z,95957.00
2023-01-17T19:55:11.816Z,95954.02
2023-01-17T19:57:44.099Z,95949.77
2023-01-17T20:00:20.625Z,95941.56
2023-01-17T20:02:52.975Z,95939.37
2023-01-17T20:05:25.463Z,95934.54
2023-01-17T20:07:58.080Z,95939.13
2023-01-17T20:10:31.277Z,95941.48
2023-01-17T20:13:04.711Z,95938.48
2023-01-17T20:15:37.295Z,95936.75
2023-01-17T20:18:09.605Z,95936.70
2023-01-17T20:20:56.393Z,95940.21
2023-01-17T20:23:29.705Z,95943.63
2023-01-17T20:26:04.754Z,95942.90
2023-01-17T20:28:39.223Z,95937.71
2023-01-17T20:31:14.480Z,95934.55
2023-01-17T20:33:50.424Z,95934.30
2023-01-17T20:36:25.779Z,95933.56
2023-01-17T20:38:58.475Z,95930.39
2023-01-17T20:41:33.856Z,95918.02
2023-01-17T20:44:12.870Z,95907.89
2023-01-17T20:46:47.803Z,95897.05
2023-01-17T20:49:25.875Z,95897.80
2023-01-17T20:52:00.059Z,95902.19
2023-01-17T20:54:32.584Z,95898.98
2023-01-17T20:57:05.084Z,95892.92
2023-01-17T20:59:37.696Z,95888.62
2023-01-17T21:02:10.880Z,95876.94
2023-01-17T21:04:48.261Z,95876.99
2023-01-17T21:07:20.857Z,95877.37
2023-01-17T21:09:53.302Z,95879.93
2023-01-17T21:12:27.645Z,95881.83
2023-01-17T21:15:00.113Z,95882.87
2023-01-17T21:17:34.865Z,95894.35
2023-01-17T21:20:08.228Z,95907.00
2023-01-17T21:22:40.778Z,95908.27
2023-01-17T21:25:13.461Z,95910.61
2023-01-17T21:27:46.483Z,95921.38
2023-01-17T21:30:21.354Z,95921.20
2023-01-17T21:32:53.899Z,95915.94
2023-01-17T21:35:30.432Z,95913.30
2023-01-17T21:38:03.023Z,95911.19
2023-01-17T21:40:35.801Z,95916.26
2023-01-17T21:43:08.342Z,95911.57
2023-01-17T21:45:41.728Z,95903.77
2023-01-17T21:48:14.718Z,95898.06
2023-01-17T21:50:47.399Z,95894.80
2023-01-17T21:53:19.795Z,95888.45
2023-01-17T21:56:09.554Z,95885.79
2023-01-17T21:58:44.813Z,95900.77
2023-01-17T22:01:23.021Z,95913.77
2023-01-17T22:04:00.344Z,95913.34
2023-01-17T22:06:34.510Z,95906.86
2023-01-17T22:09:07.377Z,95905.64
2023-01-17T22:11:43.319Z,95906.48
2023-01-17T22:14:15.796Z,95910.17
2023-01-17T22:16:48.715Z,95900.61
2023-01-17T22:19:21.264Z,95898.40
2023-01-17T22:21:54.995Z,95893.57
2023-01-17T22:24:27.393Z,95894.52
2023-01-17T22:26:59.729Z,95898.26
2023-01-17T22:29:36.596Z,95887.95
2023-01-17T22:32:09.698Z,95880.96
2023-01-17T22:34:42.165Z,95879.31
2023-01-17T22:37:15.018Z,95881.93
2023-01-17T22:39:47.301Z,95890.26
2023-01-17T22:42:19.698Z,95874.17
2023-01-17T22:44:51.981Z,95875.35
2023-01-17T22:47:24.376Z,95867.77
2023-01-17T22:49:56.756Z,95880.18
2023-01-17T22:52:31.738Z,95887.67
2023-01-17T22:55:07.092Z,95890.17
2023-01-17T22:57:39.433Z,95884.53
2023-01-17T23:00:15.530Z,95874.56
2023-01-17T23:02:48.203Z,95859.02
2023-01-17T23:05:23.027Z,95846.91
2023-01-17T23:07:55.757Z,95841.91
2023-01-17T23:10:48.581Z,95833.29
2023-01-17T23:13:21.422Z,95825.33
2023-01-17T23:16:11.511Z,95818.27
2023-01-17T23:19:01.449Z,95810.38
2023-01-17T23:21:50.165Z,95805.59
2023-01-17T23:24:22.546Z,95804.83
2023-01-17T23:27:10.758Z,95795.33
2023-01-17T23:29:43.321Z,95794.75
2023-01-17T23:32:18.878Z,95799.90
2023-01-17T23:34:52.243Z,95802.52
2023-01-17T23:37:47.764Z,95800.27
2023-01-17T23:40:23.871Z,95800.19
2023-01-17T23:43:17.871Z,95796.61
2023-01-17T23:45:56.767Z,95793.67
2023-01-17T23:48:30.191Z,95797.29
2023-01-17T23:51:08.245Z,95790.70
2023-01-17T23:53:44.234Z,95799.41
2023-01-17T23:56:27.084Z,95801.61
2023-01-17T23:59:01.253Z,95800.04
